sensor_id;sensor_type;location;lat;lon;timestamp;pressure;altitude;pressure_sealevel;temperature;humidity
31183;BME280;17813;0.000;0.000;2023-05-02T00:01:20;99305.00;;;11.11;81.02
31183;BME280;17813;0.000;0.000;2023-05-02T00:03:47;99302.47;;;11.09;81.01
31183;BME280;17813;0.000;0.000;2023-05-02T00:06:15;99303.53;;;11.07;81.63
31183;BME280;17813;0.000;0.000;2023-05-02T00:08:42;99303.81;;;11.02;81.84
31183;BME280;17813;0.000;0.000;2023-05-02T00:11:09;99311.13;;;10.99;81.63
31183;BME280;17813;0.000;0.000;2023-05-02T00:13:38;99312.28;;;10.94;81.57
31183;BME280;17813;0.000;0.000;2023-05-02T00:16:05;99315.53;;;10.85;82.68
31183;BME280;17813;0.000;0.000;2023-05-02T00:18:33;99312.63;;;10.76;82.20
31183;BME280;17813;0.000;0.000;2023-05-02T00:21:00;99292.88;;;10.67;82.67
31183;BME280;17813;0.000;0.000;2023-05-02T00:23:28;99302.38;;;10.57;82.73
31183;BME280;17813;0.000;0.000;2023-05-02T00:25:55;99304.66;;;10.49;83.32
31183;BME280;17813;0.000;0.000;2023-05-02T00:28:22;99308.66;;;10.42;82.32
31183;BME280;17813;0.000;0.000;2023-05-02T00:30:48;99304.66;;;10.35;82.61
31183;BME280;17813;0.000;0.000;2023-05-02T00:33:15;99305.91;;;10.29;82.78
31183;BME280;17813;0.000;0.000;2023-05-02T00:35:43;99313.94;;;10.27;82.28
31183;BME280;17813;0.000;0.000;2023-05-02T00:38:10;99317.66;;;10.25;82.71
31183;BME280;17813;0.000;0.000;2023-05-02T00:40:48;99310.13;;;10.17;82.29
31183;BME280;17813;0.000;0.000;2023-05-02T00:43:17;99302.38;;;10.14;82.85
31183;BME280;17813;0.000;0.000;2023-05-02T00:45:45;99312.22;;;10.12;82.76
31183;BME280;17813;0.000;0.000;2023-05-02T00:48:12;99305.22;;;10.11;82.48
31183;BME280;17813;0.000;0.000;2023-05-02T00:50:41;99307.03;;;10.11;83.19
31183;BME280;17813;0.000;0.000;2023-05-02T00:53:09;99302.88;;;10.07;83.50
31183;BME280;17813;0.000;0.000;2023-05-02T00:55:37;99300.31;;;10.05;83.49
31183;BME280;17813;0.000;0.000;2023-05-02T00:58:10;99301.63;;;9.98;84.16
31183;BME280;17813;0.000;0.000;2023-05-02T01:06:35;99303.34;;;9.71;84.32
31183;BME280;17813;0.000;0.000;2023-05-02T01:12:09;99310.59;;;9.53;84.11
31183;BME280;17813;0.000;0.000;2023-05-02T01:14:46;99294.13;;;9.48;83.99
31183;BME280;17813;0.000;0.000;2023-05-02T01:17:18;99300.38;;;9.47;84.36
31183;BME280;17813;0.000;0.000;2023-05-02T01:19:55;99301.59;;;9.41;84.50
31183;BME280;17813;0.000;0.000;2023-05-02T01:22:26;99305.09;;;9.42;84.42
31183;BME280;17813;0.000;0.000;2023-05-02T01:30:38;99313.25;;;9.23;85.02
31183;BME280;17813;0.000;0.000;2023-05-02T01:33:10;99316.75;;;9.23;84.71
31183;BME280;17813;0.000;0.000;2023-05-02T01:35:39;99315.91;;;9.23;84.95
31183;BME280;17813;0.000;0.000;2023-05-02T01:38:08;99321.03;;;9.26;84.69
31183;BME280;17813;0.000;0.000;2023-05-02T01:40:37;99328.78;;;9.29;85.16
31183;BME280;17813;0.000;0.000;2023-05-02T01:43:05;99327.75;;;9.31;85.08
31183;BME280;17813;0.000;0.000;2023-05-02T01:45:35;99325.97;;;9.32;84.45
31183;BME280;17813;0.000;0.000;2023-05-02T01:48:05;99323.22;;;9.33;84.46
31183;BME280;17813;0.000;0.000;2023-05-02T01:50:36;99327.56;;;9.34;84.25
31183;BME280;17813;0.000;0.000;2023-05-02T01:53:05;99328.34;;;9.37;84.37
31183;BME280;17813;0.000;0.000;2023-05-02T01:55:34;99330.13;;;9.36;84.18
31183;BME280;17813;0.000;0.000;2023-05-02T01:58:03;99334.47;;;9.37;84.34
31183;BME280;17813;0.000;0.000;2023-05-02T02:00:31;99334.38;;;9.39;84.24
31183;BME280;17813;0.000;0.000;2023-05-02T02:03:01;99337.69;;;9.42;83.96
31183;BME280;17813;0.000;0.000;2023-05-02T02:05:30;99342.06;;;9.43;84.24
31183;BME280;17813;0.000;0.000;2023-05-02T02:07:59;99347.16;;;9.46;84.22
31183;BME280;17813;0.000;0.000;2023-05-02T02:10:30;99352.56;;;9.45;83.54
31183;BME280;17813;0.000;0.000;2023-05-02T02:13:30;99345.81;;;9.39;83.87
31183;BME280;17813;0.000;0.000;2023-05-02T02:16:03;99347.34;;;9.43;83.86
31183;BME280;17813;0.000;0.000;2023-05-02T02:18:36;99354.34;;;9.44;83.87
31183;BME280;17813;0.000;0.000;2023-05-02T02:21:08;99361.44;;;9.44;83.72
31183;BME280;17813;0.000;0.000;2023-05-02T02:23:39;99358.13;;;9.40;83.53
31183;BME280;17813;0.000;0.000;2023-05-02T02:26:09;99369.38;;;9.44;83.67
31183;BME280;17813;0.000;0.000;2023-05-02T02:28:38;99360.59;;;9.43;83.60
31183;BME280;17813;0.000;0.000;2023-05-02T02:31:05;99370.31;;;9.43;83.47
31183;BME280;17813;0.000;0.000;2023-05-02T02:33:33;99372.13;;;9.42;83.69
31183;BME280;17813;0.000;0.000;2023-05-02T02:36:27;99382.13;;;9.37;83.82
31183;BME280;17813;0.000;0.000;2023-05-02T02:39:10;99383.31;;;9.31;83.70
31183;BME280;17813;0.000;0.000;2023-05-02T02:44:42;99383.09;;;9.20;84.13
31183;BME280;17813;0.000;0.000;2023-05-02T02:47:31;99395.38;;;9.21;84.32
31183;BME280;17813;0.000;0.000;2023-05-02T02:50:26;99391.72;;;9.08;84.32
31183;BME280;17813;0.000;0.000;2023-05-02T02:53:05;99401.28;;;9.11;84.76
31183;BME280;17813;0.000;0.000;2023-05-02T02:58:40;99406.94;;;9.05;84.57
31183;BME280;17813;0.000;0.000;2023-05-02T03:01:14;99405.97;;;9.06;84.32
31183;BME280;17813;0.000;0.000;2023-05-02T03:03:42;99416.66;;;9.04;84.31
31183;BME280;17813;0.000;0.000;2023-05-02T03:06:10;99420.91;;;9.07;84.31
31183;BME280;17813;0.000;0.000;2023-05-02T03:08:41;99416.06;;;8.99;84.37
31183;BME280;17813;0.000;0.000;2023-05-02T03:11:11;99425.78;;;8.98;84.37
31183;BME280;17813;0.000;0.000;2023-05-02T03:13:38;99433.72;;;8.98;84.54
31183;BME280;17813;0.000;0.000;2023-05-02T03:18:53;99430.38;;;8.79;84.75
31183;BME280;17813;0.000;0.000;2023-05-02T03:21:20;99437.47;;;8.79;84.68
31183;BME280;17813;0.000;0.000;2023-05-02T03:23:48;99441.22;;;8.75;84.55
31183;BME280;17813;0.000;0.000;2023-05-02T03:26:15;99440.50;;;8.55;85.79
31183;BME280;17813;0.000;0.000;2023-05-02T03:28:42;99436.34;;;8.51;86.03
31183;BME280;17813;0.000;0.000;2023-05-02T03:31:12;99444.25;;;8.51;85.75
31183;BME280;17813;0.000;0.000;2023-05-02T03:33:42;99449.19;;;8.42;86.08
31183;BME280;17813;0.000;0.000;2023-05-02T03:36:09;99457.88;;;8.44;86.20
31183;BME280;17813;0.000;0.000;2023-05-02T03:38:36;99451.81;;;8.42;86.02
31183;BME280;17813;0.000;0.000;2023-05-02T03:41:03;99450.13;;;8.41;86.08
31183;BME280;17813;0.000;0.000;2023-05-02T03:43:32;99449.28;;;8.40;85.65
31183;BME280;17813;0.000;0.000;2023-05-02T03:46:05;99459.91;;;8.38;85.97
31183;BME280;17813;0.000;0.000;2023-05-02T03:48:34;99468.53;;;8.42;86.43
31183;BME280;17813;0.000;0.000;2023-05-02T03:51:04;99464.56;;;8.51;86.15
31183;BME280;17813;0.000;0.000;2023-05-02T03:53:32;99471.91;;;8.61;85.63
31183;BME280;17813;0.000;0.000;2023-05-02T03:55:59;99475.94;;;8.68;86.24
31183;BME280;17813;0.000;0.000;2023-05-02T03:58:27;99480.97;;;8.73;85.36
31183;BME280;17813;0.000;0.000;2023-05-02T04:00:54;99482.25;;;8.82;85.11
31183;BME280;17813;0.000;0.000;2023-05-02T04:03:21;99490.09;;;8.83;84.88
31183;BME280;17813;0.000;0.000;2023-05-02T04:05:49;99502.31;;;8.86;84.82
31183;BME280;17813;0.000;0.000;2023-05-02T04:08:17;99493.44;;;8.87;84.92
31183;BME280;17813;0.000;0.000;2023-05-02T04:10:44;99500.09;;;8.94;85.05
31183;BME280;17813;0.000;0.000;2023-05-02T04:13:12;99499.00;;;8.98;84.61
31183;BME280;17813;0.000;0.000;2023-05-02T04:15:39;99499.59;;;9.03;84.45
31183;BME280;17813;0.000;0.000;2023-05-02T04:18:05;99506.44;;;9.07;84.42
31183;BME280;17813;0.000;0.000;2023-05-02T04:20:33;99504.22;;;9.15;84.41
31183;BME280;17813;0.000;0.000;2023-05-02T04:23:00;99505.66;;;9.21;83.97
31183;BME280;17813;0.000;0.000;2023-05-02T04:25:27;99512.66;;;9.22;84.38
31183;BME280;17813;0.000;0.000;2023-05-02T04:27:55;99515.13;;;9.25;84.76
31183;BME280;17813;0.000;0.000;2023-05-02T04:30:23;99514.72;;;9.32;84.82
31183;BME280;17813;0.000;0.000;2023-05-02T04:32:51;99515.97;;;9.41;84.45
31183;BME280;17813;0.000;0.000;2023-05-02T04:35:19;99525.03;;;9.53;83.90
31183;BME280;17813;0.000;0.000;2023-05-02T04:37:46;99528.84;;;9.63;83.88
31183;BME280;17813;0.000;0.000;2023-05-02T04:40:15;99525.19;;;9.65;83.95
31183;BME280;17813;0.000;0.000;2023-05-02T04:42:43;99536.69;;;9.80;83.70
31183;BME280;17813;0.000;0.000;2023-05-02T04:45:09;99538.47;;;9.95;83.11
31183;BME280;17813;0.000;0.000;2023-05-02T04:47:36;99540.03;;;10.14;82.73
31183;BME280;17813;0.000;0.000;2023-05-02T04:50:04;99545.00;;;10.20;82.02
31183;BME280;17813;0.000;0.000;2023-05-02T04:52:31;99542.25;;;10.21;81.77
31183;BME280;17813;0.000;0.000;2023-05-02T04:54:58;99543.19;;;10.20;81.66
31183;BME280;17813;0.000;0.000;2023-05-02T04:57:25;99550.44;;;10.17;81.68
31183;BME280;17813;0.000;0.000;2023-05-02T04:59:52;99554.13;;;10.14;82.05
31183;BME280;17813;0.000;0.000;2023-05-02T05:09:06;99563.38;;;10.07;82.41
31183;BME280;17813;0.000;0.000;2023-05-02T05:11:33;99568.22;;;10.15;81.88
31183;BME280;17813;0.000;0.000;2023-05-02T05:14:00;99567.19;;;10.17;81.96
31183;BME280;17813;0.000;0.000;2023-05-02T05:16:30;99569.09;;;10.15;81.88
31183;BME280;17813;0.000;0.000;2023-05-02T05:18:57;99579.88;;;10.12;82.45
31183;BME280;17813;0.000;0.000;2023-05-02T05:21:24;99577.22;;;10.12;82.12
31183;BME280;17813;0.000;0.000;2023-05-02T05:23:51;99591.41;;;10.11;81.84
31183;BME280;17813;0.000;0.000;2023-05-02T05:26:18;99595.50;;;10.17;81.76
31183;BME280;17813;0.000;0.000;2023-05-02T05:28:46;99602.84;;;10.27;81.87
31183;BME280;17813;0.000;0.000;2023-05-02T05:31:14;99602.41;;;10.35;81.82
31183;BME280;17813;0.000;0.000;2023-05-02T05:33:45;99609.94;;;10.43;82.01
31183;BME280;17813;0.000;0.000;2023-05-02T05:36:13;99611.47;;;10.47;81.87
31183;BME280;17813;0.000;0.000;2023-05-02T05:38:41;99606.75;;;10.52;81.66
31183;BME280;17813;0.000;0.000;2023-05-02T05:41:07;99612.91;;;10.52;81.39
31183;BME280;17813;0.000;0.000;2023-05-02T05:43:34;99615.81;;;10.48;81.69
31183;BME280;17813;0.000;0.000;2023-05-02T05:46:02;99622.94;;;10.47;81.79
31183;BME280;17813;0.000;0.000;2023-05-02T05:51:55;99628.06;;;10.35;82.19
31183;BME280;17813;0.000;0.000;2023-05-02T05:54:21;99634.91;;;10.39;82.25
31183;BME280;17813;0.000;0.000;2023-05-02T05:56:48;99643.28;;;10.47;82.51
31183;BME280;17813;0.000;0.000;2023-05-02T05:59:17;99638.38;;;10.55;81.91
31183;BME280;17813;0.000;0.000;2023-05-02T06:01:44;99647.88;;;10.59;81.30
31183;BME280;17813;0.000;0.000;2023-05-02T06:04:11;99650.91;;;10.67;82.17
31183;BME280;17813;0.000;0.000;2023-05-02T06:06:38;99647.53;;;10.79;81.85
31183;BME280;17813;0.000;0.000;2023-05-02T06:09:05;99651.34;;;10.89;81.43
31183;BME280;17813;0.000;0.000;2023-05-02T06:11:32;99661.50;;;10.97;81.44
31183;BME280;17813;0.000;0.000;2023-05-02T06:13:59;99665.00;;;10.98;81.28
31183;BME280;17813;0.000;0.000;2023-05-02T06:16:26;99663.03;;;11.01;81.57
31183;BME280;17813;0.000;0.000;2023-05-02T06:18:53;99655.81;;;11.03;81.41
31183;BME280;17813;0.000;0.000;2023-05-02T06:21:20;99671.56;;;11.06;81.48
31183;BME280;17813;0.000;0.000;2023-05-02T06:23:47;99672.59;;;11.04;81.41
31183;BME280;17813;0.000;0.000;2023-05-02T06:26:14;99668.59;;;10.97;82.42
31183;BME280;17813;0.000;0.000;2023-05-02T06:28:42;99676.47;;;10.98;81.63
31183;BME280;17813;0.000;0.000;2023-05-02T06:31:09;99688.63;;;11.02;82.10
31183;BME280;17813;0.000;0.000;2023-05-02T06:33:35;99693.47;;;11.10;82.17
31183;BME280;17813;0.000;0.000;2023-05-02T06:36:03;99690.34;;;11.17;82.15
31183;BME280;17813;0.000;0.000;2023-05-02T06:38:30;99688.91;;;11.26;81.64
31183;BME280;17813;0.000;0.000;2023-05-02T06:40:56;99692.91;;;11.33;81.63
31183;BME280;17813;0.000;0.000;2023-05-02T06:43:24;99694.34;;;11.39;81.49
31183;BME280;17813;0.000;0.000;2023-05-02T06:45:54;99697.00;;;11.39;81.21
31183;BME280;17813;0.000;0.000;2023-05-02T06:48:22;99702.78;;;11.45;81.13
31183;BME280;17813;0.000;0.000;2023-05-02T06:50:52;99701.84;;;11.46;81.23
31183;BME280;17813;0.000;0.000;2023-05-02T06:53:19;99712.25;;;11.49;81.05
31183;BME280;17813;0.000;0.000;2023-05-02T06:55:46;99723.66;;;11.51;81.17
31183;BME280;17813;0.000;0.000;2023-05-02T06:58:14;99716.44;;;11.53;81.39
31183;BME280;17813;0.000;0.000;2023-05-02T07:00:41;99725.72;;;11.60;81.07
31183;BME280;17813;0.000;0.000;2023-05-02T07:03:08;99717.66;;;11.62;81.27
31183;BME280;17813;0.000;0.000;2023-05-02T07:05:37;99728.88;;;11.67;81.49
31183;BME280;17813;0.000;0.000;2023-05-02T07:08:05;99735.41;;;11.76;81.25
31183;BME280;17813;0.000;0.000;2023-05-02T07:10:32;99741.75;;;11.73;81.55
31183;BME280;17813;0.000;0.000;2023-05-02T07:12:59;99746.22;;;11.73;81.43
31183;BME280;17813;0.000;0.000;2023-05-02T07:15:27;99749.47;;;11.78;81.32
31183;BME280;17813;0.000;0.000;2023-05-02T07:17:53;99746.03;;;11.76;81.65
31183;BME280;17813;0.000;0.000;2023-05-02T07:20:21;99762.16;;;11.73;82.11
31183;BME280;17813;0.000;0.000;2023-05-02T07:22:49;99760.28;;;11.75;82.05
31183;BME280;17813;0.000;0.000;2023-05-02T07:25:16;99753.56;;;11.83;81.88
31183;BME280;17813;0.000;0.000;2023-05-02T07:27:43;99758.31;;;11.93;81.56
31183;BME280;17813;0.000;0.000;2023-05-02T07:30:10;99758.75;;;11.99;81.19
31183;BME280;17813;0.000;0.000;2023-05-02T07:32:37;99754.09;;;12.03;81.15
31183;BME280;17813;0.000;0.000;2023-05-02T07:35:04;99760.09;;;12.06;81.09
31183;BME280;17813;0.000;0.000;2023-05-02T07:37:33;99761.59;;;12.10;81.05
31183;BME280;17813;0.000;0.000;2023-05-02T07:40:00;99770.16;;;12.01;82.46
31183;BME280;17813;0.000;0.000;2023-05-02T07:42:31;99770.06;;;12.03;82.23
31183;BME280;17813;0.000;0.000;2023-05-02T07:44:58;99778.59;;;12.08;82.44
31183;BME280;17813;0.000;0.000;2023-05-02T07:47:25;99770.69;;;12.20;81.91
31183;BME280;17813;0.000;0.000;2023-05-02T07:49:54;99779.59;;;12.34;82.01
31183;BME280;17813;0.000;0.000;2023-05-02T07:52:21;99777.47;;;12.53;81.61
31183;BME280;17813;0.000;0.000;2023-05-02T07:54:48;99769.44;;;12.67;81.72
31183;BME280;17813;0.000;0.000;2023-05-02T07:57:16;99770.03;;;12.85;80.83
31183;BME280;17813;0.000;0.000;2023-05-02T07:59:43;99772.44;;;13.02;79.98
31183;BME280;17813;0.000;0.000;2023-05-02T08:02:10;99781.53;;;13.12;79.88
31183;BME280;17813;0.000;0.000;2023-05-02T08:04:40;99786.28;;;13.34;79.27
31183;BME280;17813;0.000;0.000;2023-05-02T08:07:07;99782.88;;;13.58;78.82
31183;BME280;17813;0.000;0.000;2023-05-02T08:09:39;99794.63;;;13.80;77.03
31183;BME280;17813;0.000;0.000;2023-05-02T08:12:06;99787.47;;;13.94;77.49
31183;BME280;17813;0.000;0.000;2023-05-02T08:14:33;99800.78;;;14.06;77.21
31183;BME280;17813;0.000;0.000;2023-05-02T08:17:00;99798.41;;;14.27;76.53
31183;BME280;17813;0.000;0.000;2023-05-02T08:19:28;99802.44;;;14.33;76.02
31183;BME280;17813;0.000;0.000;2023-05-02T08:21:55;99813.00;;;14.47;75.30
31183;BME280;17813;0.000;0.000;2023-05-02T08:24:22;99807.03;;;14.43;74.95
31183;BME280;17813;0.000;0.000;2023-05-02T08:26:50;99807.72;;;14.58;75.03
31183;BME280;17813;0.000;0.000;2023-05-02T08:29:17;99811.13;;;14.60;74.16
31183;BME280;17813;0.000;0.000;2023-05-02T08:31:44;99806.94;;;14.69;74.45
31183;BME280;17813;0.000;0.000;2023-05-02T08:34:12;99806.72;;;14.96;74.03
31183;BME280;17813;0.000;0.000;2023-05-02T08:36:39;99806.78;;;15.07;72.12
31183;BME280;17813;0.000;0.000;2023-05-02T08:39:05;99806.81;;;15.18;72.61
31183;BME280;17813;0.000;0.000;2023-05-02T08:41:35;99810.50;;;15.28;72.83
31183;BME280;17813;0.000;0.000;2023-05-02T08:44:04;99813.84;;;15.54;72.75
31183;BME280;17813;0.000;0.000;2023-05-02T08:46:35;99808.09;;;15.60;70.90
31183;BME280;17813;0.000;0.000;2023-05-02T08:49:06;99813.97;;;15.53;69.43
31183;BME280;17813;0.000;0.000;2023-05-02T08:51:34;99818.56;;;15.63;70.49
31183;BME280;17813;0.000;0.000;2023-05-02T08:54:02;99832.34;;;15.57;69.75
31183;BME280;17813;0.000;0.000;2023-05-02T08:56:30;99827.53;;;15.62;70.06
31183;BME280;17813;0.000;0.000;2023-05-02T08:58:59;99828.56;;;15.95;70.56
31183;BME280;17813;0.000;0.000;2023-05-02T09:01:29;99829.41;;;16.74;68.85
31183;BME280;17813;0.000;0.000;2023-05-02T09:03:57;99831.44;;;17.45;66.85
31183;BME280;17813;0.000;0.000;2023-05-02T09:06:27;99828.41;;;17.91;65.09
31183;BME280;17813;0.000;0.000;2023-05-02T09:08:58;99828.78;;;18.38;64.50
31183;BME280;17813;0.000;0.000;2023-05-02T09:11:25;99822.88;;;19.13;61.66
31183;BME280;17813;0.000;0.000;2023-05-02T09:13:52;99832.66;;;19.43;59.46
31183;BME280;17813;0.000;0.000;2023-05-02T09:16:23;99834.38;;;19.64;58.81
31183;BME280;17813;0.000;0.000;2023-05-02T09:18:57;99827.16;;;19.64;56.15
31183;BME280;17813;0.000;0.000;2023-05-02T09:21:34;99833.94;;;19.49;56.98
31183;BME280;17813;0.000;0.000;2023-05-02T09:24:14;99833.69;;;19.52;58.28
31183;BME280;17813;0.000;0.000;2023-05-02T09:26:55;99834.75;;;19.88;59.05
31183;BME280;17813;0.000;0.000;2023-05-02T09:29:23;99833.47;;;19.92;58.23
31183;BME280;17813;0.000;0.000;2023-05-02T09:31:50;99835.56;;;19.98;57.25
31183;BME280;17813;0.000;0.000;2023-05-02T09:34:18;99843.56;;;19.51;56.44
31183;BME280;17813;0.000;0.000;2023-05-02T09:36:49;99842.13;;;19.38;57.40
31183;BME280;17813;0.000;0.000;2023-05-02T09:39:27;99836.34;;;19.13;57.18
31183;BME280;17813;0.000;0.000;2023-05-02T09:41:57;99845.38;;;18.93;57.88
31183;BME280;17813;0.000;0.000;2023-05-02T09:44:27;99845.59;;;18.71;58.39
31183;BME280;17813;0.000;0.000;2023-05-02T09:47:01;99850.97;;;18.40;59.08
31183;BME280;17813;0.000;0.000;2023-05-02T09:49:42;99856.41;;;17.98;58.34
31183;BME280;17813;0.000;0.000;2023-05-02T09:52:17;99859.66;;;17.60;57.79
31183;BME280;17813;0.000;0.000;2023-05-02T09:54:50;99864.47;;;17.14;58.61
31183;BME280;17813;0.000;0.000;2023-05-02T09:57:18;99872.84;;;16.77;59.31
31183;BME280;17813;0.000;0.000;2023-05-02T09:59:56;99876.38;;;16.44;60.31
31183;BME280;17813;0.000;0.000;2023-05-02T10:02:24;99880.50;;;16.26;60.47
31183;BME280;17813;0.000;0.000;2023-05-02T10:04:53;99878.81;;;16.14;61.19
31183;BME280;17813;0.000;0.000;2023-05-02T10:07:23;99880.03;;;16.21;60.83
31183;BME280;17813;0.000;0.000;2023-05-02T10:09:53;99886.22;;;16.10;61.30
31183;BME280;17813;0.000;0.000;2023-05-02T10:12:23;99885.13;;;16.13;61.29
31183;BME280;17813;0.000;0.000;2023-05-02T10:14:58;99893.03;;;16.25;60.97
31183;BME280;17813;0.000;0.000;2023-05-02T10:17:30;99883.44;;;16.34;61.03
31183;BME280;17813;0.000;0.000;2023-05-02T10:20:04;99881.75;;;16.66;61.38
31183;BME280;17813;0.000;0.000;2023-05-02T10:22:33;99873.88;;;17.08;60.72
31183;BME280;17813;0.000;0.000;2023-05-02T10:25:02;99876.78;;;17.48;58.41
31183;BME280;17813;0.000;0.000;2023-05-02T10:27:30;99883.19;;;17.89;57.67
31183;BME280;17813;0.000;0.000;2023-05-02T10:29:58;99886.50;;;18.23;56.77
31183;BME280;17813;0.000;0.000;2023-05-02T10:32:34;99890.03;;;18.54;55.23
31183;BME280;17813;0.000;0.000;2023-05-02T10:35:04;99883.66;;;18.76;54.28
31183;BME280;17813;0.000;0.000;2023-05-02T10:37:33;99878.66;;;18.61;52.55
31183;BME280;17813;0.000;0.000;2023-05-02T10:40:02;99882.69;;;18.56;53.77
31183;BME280;17813;0.000;0.000;2023-05-02T10:42:29;99868.63;;;19.33;55.49
31183;BME280;17813;0.000;0.000;2023-05-02T10:45:00;99867.28;;;20.04;51.72
31183;BME280;17813;0.000;0.000;2023-05-02T10:47:29;99872.06;;;20.20;51.46
31183;BME280;17813;0.000;0.000;2023-05-02T10:50:01;99864.00;;;20.10;51.69
31183;BME280;17813;0.000;0.000;2023-05-02T10:52:37;99873.22;;;20.17;51.96
31183;BME280;17813;0.000;0.000;2023-05-02T10:55:22;99872.38;;;20.17;49.57
31183;BME280;17813;0.000;0.000;2023-05-02T11:00:27;99872.28;;;19.89;51.72
31183;BME280;17813;0.000;0.000;2023-05-02T11:02:55;99874.16;;;19.79;50.39
31183;BME280;17813;0.000;0.000;2023-05-02T11:05:30;99875.84;;;19.51;49.66
31183;BME280;17813;0.000;0.000;2023-05-02T11:10:41;99869.34;;;19.73;52.00
31183;BME280;17813;0.000;0.000;2023-05-02T11:13:08;99870.69;;;20.06;51.30
31183;BME280;17813;0.000;0.000;2023-05-02T11:18:10;99870.50;;;20.64;48.44
31183;BME280;17813;0.000;0.000;2023-05-02T11:20:42;99870.09;;;20.12;45.44
31183;BME280;17813;0.000;0.000;2023-05-02T11:23:20;99870.88;;;19.47;47.19
31183;BME280;17813;0.000;0.000;2023-05-02T11:28:51;99867.63;;;19.82;49.64
31183;BME280;17813;0.000;0.000;2023-05-02T11:33:58;99860.53;;;20.37;47.29
31183;BME280;17813;0.000;0.000;2023-05-02T11:36:30;99864.50;;;20.33;49.03
31183;BME280;17813;0.000;0.000;2023-05-02T11:39:02;99869.03;;;20.33;47.30
31183;BME280;17813;0.000;0.000;2023-05-02T11:41:43;99866.75;;;19.91;46.60
31183;BME280;17813;0.000;0.000;2023-05-02T11:44:15;99862.03;;;20.12;47.02
31183;BME280;17813;0.000;0.000;2023-05-02T11:46:42;99863.06;;;20.02;46.53
31183;BME280;17813;0.000;0.000;2023-05-02T11:49:11;99860.53;;;19.90;46.74
31183;BME280;17813;0.000;0.000;2023-05-02T11:51:39;99855.09;;;20.10;48.07
31183;BME280;17813;0.000;0.000;2023-05-02T11:54:07;99850.03;;;19.97;46.20
31183;BME280;17813;0.000;0.000;2023-05-02T11:56:35;99855.13;;;20.00;46.12
31183;BME280;17813;0.000;0.000;2023-05-02T11:59:03;99858.56;;;20.39;45.74
31183;BME280;17813;0.000;0.000;2023-05-02T12:01:30;99855.09;;;20.57;45.67
31183;BME280;17813;0.000;0.000;2023-05-02T12:04:03;99853.78;;;20.61;46.77
31183;BME280;17813;0.000;0.000;2023-05-02T12:06:33;99851.69;;;21.09;48.70
31183;BME280;17813;0.000;0.000;2023-05-02T12:09:09;99847.25;;;21.36;45.82
31183;BME280;17813;0.000;0.000;2023-05-02T12:11:36;99851.09;;;21.33;46.81
31183;BME280;17813;0.000;0.000;2023-05-02T12:14:04;99858.28;;;21.42;46.70
31183;BME280;17813;0.000;0.000;2023-05-02T12:16:32;99853.88;;;21.41;44.89
31183;BME280;17813;0.000;0.000;2023-05-02T12:19:00;99865.78;;;21.03;43.40
31183;BME280;17813;0.000;0.000;2023-05-02T12:21:28;99873.72;;;20.31;44.95
31183;BME280;17813;0.000;0.000;2023-05-02T12:24:01;99877.19;;;20.13;45.60
31183;BME280;17813;0.000;0.000;2023-05-02T12:26:29;99874.09;;;20.08;46.33
31183;BME280;17813;0.000;0.000;2023-05-02T12:28:58;99878.22;;;19.93;47.04
31183;BME280;17813;0.000;0.000;2023-05-02T12:31:27;99881.53;;;19.68;47.37
31183;BME280;17813;0.000;0.000;2023-05-02T12:33:57;99884.47;;;19.26;48.54
31183;BME280;17813;0.000;0.000;2023-05-02T12:36:26;99902.66;;;18.93;49.72
31183;BME280;17813;0.000;0.000;2023-05-02T12:38:57;99902.69;;;18.63;51.57
31183;BME280;17813;0.000;0.000;2023-05-02T12:41:32;99907.38;;;18.19;52.42
31183;BME280;17813;0.000;0.000;2023-05-02T12:44:00;99916.16;;;18.00;54.40
31183;BME280;17813;0.000;0.000;2023-05-02T12:46:27;99924.34;;;17.99;54.73
31183;BME280;17813;0.000;0.000;2023-05-02T12:49:07;99928.72;;;17.79;55.63
31183;BME280;17813;0.000;0.000;2023-05-02T12:51:38;99932.63;;;17.43;57.21
31183;BME280;17813;0.000;0.000;2023-05-02T12:54:05;99943.06;;;17.14;56.02
31183;BME280;17813;0.000;0.000;2023-05-02T12:56:42;99962.66;;;16.48;57.81
31183;BME280;17813;0.000;0.000;2023-05-02T12:59:28;99965.50;;;16.11;58.37
31183;BME280;17813;0.000;0.000;2023-05-02T13:01:58;99958.28;;;15.89;58.01
31183;BME280;17813;0.000;0.000;2023-05-02T13:04:46;99979.13;;;15.73;58.75
31183;BME280;17813;0.000;0.000;2023-05-02T13:07:22;99984.19;;;15.65;59.63
31183;BME280;17813;0.000;0.000;2023-05-02T13:09:59;99977.56;;;15.21;60.93
31183;BME280;17813;0.000;0.000;2023-05-02T13:12:26;99986.09;;;14.90;63.59
31183;BME280;17813;0.000;0.000;2023-05-02T13:14:54;99989.13;;;14.60;64.86
31183;BME280;17813;0.000;0.000;2023-05-02T13:17:22;99992.81;;;14.32;66.51
31183;BME280;17813;0.000;0.000;2023-05-02T13:19:50;99998.47;;;14.40;67.06
31183;BME280;17813;0.000;0.000;2023-05-02T13:22:22;100003.09;;;14.51;66.57
31183;BME280;17813;0.000;0.000;2023-05-02T13:24:51;100000.66;;;14.60;66.93
31183;BME280;17813;0.000;0.000;2023-05-02T13:27:21;100001.94;;;14.67;66.72
31183;BME280;17813;0.000;0.000;2023-05-02T13:29:49;100003.09;;;14.76;66.75
31183;BME280;17813;0.000;0.000;2023-05-02T13:32:18;100002.56;;;14.58;66.91
31183;BME280;17813;0.000;0.000;2023-05-02T13:34:52;100009.63;;;14.59;66.95
31183;BME280;17813;0.000;0.000;2023-05-02T13:37:25;99996.81;;;14.64;67.74
31183;BME280;17813;0.000;0.000;2023-05-02T13:39:54;100000.84;;;14.83;66.25
31183;BME280;17813;0.000;0.000;2023-05-02T13:42:21;99994.84;;;14.92;67.15
31183;BME280;17813;0.000;0.000;2023-05-02T13:44:48;100009.56;;;15.10;66.72
31183;BME280;17813;0.000;0.000;2023-05-02T13:47:18;100005.94;;;15.11;66.93
31183;BME280;17813;0.000;0.000;2023-05-02T13:49:48;100006.53;;;15.27;67.31
31183;BME280;17813;0.000;0.000;2023-05-02T13:52:18;100016.38;;;15.14;67.31
31183;BME280;17813;0.000;0.000;2023-05-02T13:54:45;100012.63;;;15.17;66.66
31183;BME280;17813;0.000;0.000;2023-05-02T13:57:12;100024.31;;;15.03;67.70
31183;BME280;17813;0.000;0.000;2023-05-02T13:59:40;100030.31;;;14.94;66.85
31183;BME280;17813;0.000;0.000;2023-05-02T14:02:08;100031.72;;;14.87;67.22
31183;BME280;17813;0.000;0.000;2023-05-02T14:04:34;100036.94;;;14.88;66.80
31183;BME280;17813;0.000;0.000;2023-05-02T14:07:01;100031.19;;;14.82;66.95
31183;BME280;17813;0.000;0.000;2023-05-02T14:09:28;100036.19;;;14.73;67.06
31183;BME280;17813;0.000;0.000;2023-05-02T14:11:55;100040.38;;;14.65;68.66